sensor_id;sensor_type;location;lat;lon;timestamp;temperature;humidity
4453;DHT22;2239;48.152;11.584;2022-08-19T00:01:28;19.10;99.90
4453;DHT22;2239;48.152;11.584;2022-08-19T00:03:59;19.10;99.90
4453;DHT22;2239;48.152;11.584;2022-08-19T00:06:26;19.00;99.90
4453;DHT22;2239;48.152;11.584;2022-08-19T00:08:53;18.90;99.90
4453;DHT22;2239;48.152;11.584;2022-08-19T00:11:18;19.00;99.90
4453;DHT22;2239;48.152;11.584;2022-08-19T00:13:46;19.00;99.90
4453;DHT22;2239;48.152;11.584;2022-08-19T00:16:14;19.00;99.90
4453;DHT22;2239;48.152;11.584;2022-08-19T00:18:41;19.00;99.90
4453;DHT22;2239;48.152;11.584;2022-08-19T00:21:06;19.10;99.90
4453;DHT22;2239;48.152;11.584;2022-08-19T00:23:35;19.10;99.90
4453;DHT22;2239;48.152;11.584;2022-08-19T00:26:03;19.20;99.90
4453;DHT22;2239;48.152;11.584;2022-08-19T00:28:29;19.20;99.90
4453;DHT22;2239;48.152;11.584;2022-08-19T00:30:56;19.20;99.90
4453;DHT22;2239;48.152;11.584;2022-08-19T00:33:22;19.30;99.90
4453;DHT22;2239;48.152;11.584;2022-08-19T00:35:48;19.30;99.90
4453;DHT22;2239;48.152;11.584;2022-08-19T00:38:13;19.30;99.90
4453;DHT22;2239;48.152;11.584;2022-08-19T00:40:40;19.30;99.90
4453;DHT22;2239;48.152;11.584;2022-08-19T00:43:11;19.30;99.90
4453;DHT22;2239;48.152;11.584;2022-08-19T00:45:39;19.30;99.90
4453;DHT22;2239;48.152;11.584;2022-08-19T00:48:08;19.30;99.90
4453;DHT22;2239;48.152;11.584;2022-08-19T00:50:34;19.20;99.90
4453;DHT22;2239;48.152;11.584;2022-08-19T00:53:01;19.20;99.90
4453;DHT22;2239;48.152;11.584;2022-08-19T00:55:30;19.30;99.90
4453;DHT22;2239;48.152;11.584;2022-08-19T00:58:06;19.30;99.90
4453;DHT22;2239;48.152;11.584;2022-08-19T01:00:34;19.30;99.90
4453;DHT22;2239;48.152;11.584;2022-08-19T01:03:04;19.30;99.90
4453;DHT22;2239;48.152;11.584;2022-08-19T01:05:30;19.30;99.90
4453;DHT22;2239;48.152;11.584;2022-08-19T01:07:58;19.30;99.90
4453;DHT22;2239;48.152;11.584;2022-08-19T01:10:27;19.30;99.90
4453;DHT22;2239;48.152;11.584;2022-08-19T01:12:55;19.20;99.90
4453;DHT22;2239;48.152;11.584;2022-08-19T01:15:30;19.20;99.90
4453;DHT22;2239;48.152;11.584;2022-08-19T01:17:57;19.20;99.90
4453;DHT22;2239;48.152;11.584;2022-08-19T01:20:25;19.20;99.90
4453;DHT22;2239;48.152;11.584;2022-08-19T01:22:57;19.20;99.90
4453;DHT22;2239;48.152;11.584;2022-08-19T01:25:31;19.30;99.90
4453;DHT22;2239;48.152;11.584;2022-08-19T01:27:58;19.30;99.90
4453;DHT22;2239;48.152;11.584;2022-08-19T01:30:29;19.30;99.90
4453;DHT22;2239;48.152;11.584;2022-08-19T01:32:56;19.30;99.90
4453;DHT22;2239;48.152;11.584;2022-08-19T01:35:24;19.20;99.90
4453;DHT22;2239;48.152;11.584;2022-08-19T01:37:53;19.20;99.90
4453;DHT22;2239;48.152;11.584;2022-08-19T01:40:21;19.20;99.90
4453;DHT22;2239;48.152;11.584;2022-08-19T01:42:49;19.20;99.90
4453;DHT22;2239;48.152;11.584;2022-08-19T01:45:14;19.10;99.90
4453;DHT22;2239;48.152;11.584;2022-08-19T01:47:41;19.10;99.90
4453;DHT22;2239;48.152;11.584;2022-08-19T01:50:09;19.10;99.90
4453;DHT22;2239;48.152;11.584;2022-08-19T01:52:38;19.20;99.90
4453;DHT22;2239;48.152;11.584;2022-08-19T01:55:06;19.10;99.90
4453;DHT22;2239;48.152;11.584;2022-08-19T01:57:33;19.10;99.90
4453;DHT22;2239;48.152;11.584;2022-08-19T01:59:59;19.20;99.90
4453;DHT22;2239;48.152;11.584;2022-08-19T02:02:26;19.10;99.90
4453;DHT22;2239;48.152;11.584;2022-08-19T02:04:51;19.10;99.90
4453;DHT22;2239;48.152;11.584;2022-08-19T02:07:20;19.10;99.90
4453;DHT22;2239;48.152;11.584;2022-08-19T02:09:47;19.10;99.90
4453;DHT22;2239;48.152;11.584;2022-08-19T02:12:14;19.10;99.90
4453;DHT22;2239;48.152;11.584;2022-08-19T02:14:40;19.10;99.90
4453;DHT22;2239;48.152;11.584;2022-08-19T02:17:06;19.10;99.90
4453;DHT22;2239;48.152;11.584;2022-08-19T02:19:31;19.00;99.90
4453;DHT22;2239;48.152;11.584;2022-08-19T02:22:00;19.00;99.90
4453;DHT22;2239;48.152;11.584;2022-08-19T02:24:27;19.10;99.90
4453;DHT22;2239;48.152;11.584;2022-08-19T02:26:53;19.00;99.90
4453;DHT22;2239;48.152;11.584;2022-08-19T02:29:19;19.00;99.90
4453;DHT22;2239;48.152;11.584;2022-08-19T02:31:45;19.00;99.90
4453;DHT22;2239;48.152;11.584;2022-08-19T02:34:11;19.00;99.90
4453;DHT22;2239;48.152;11.584;2022-08-19T02:36:37;19.00;99.90
4453;DHT22;2239;48.152;11.584;2022-08-19T02:39:03;18.90;99.90
4453;DHT22;2239;48.152;11.584;2022-08-19T02:41:31;18.90;99.90
4453;DHT22;2239;48.152;11.584;2022-08-19T02:43:58;18.90;99.90
4453;DHT22;2239;48.152;11.584;2022-08-19T02:46:30;18.90;99.90
4453;DHT22;2239;48.152;11.584;2022-08-19T02:49:01;18.90;99.90
4453;DHT22;2239;48.152;11.584;2022-08-19T02:51:38;18.90;99.90
4453;DHT22;2239;48.152;11.584;2022-08-19T02:54:06;19.00;99.90
4453;DHT22;2239;48.152;11.584;2022-08-19T02:56:34;19.00;99.90
4453;DHT22;2239;48.152;11.584;2022-08-19T02:59:00;19.00;99.90
4453;DHT22;2239;48.152;11.584;2022-08-19T03:01:28;19.10;99.90
4453;DHT22;2239;48.152;11.584;2022-08-19T03:03:56;19.20;99.90
4453;DHT22;2239;48.152;11.584;2022-08-19T03:06:22;19.10;99.90
4453;DHT22;2239;48.152;11.584;2022-08-19T03:08:50;19.10;99.90
4453;DHT22;2239;48.152;11.584;2022-08-19T03:11:24;19.10;99.90
4453;DHT22;2239;48.152;11.584;2022-08-19T03:13:51;19.10;99.90
4453;DHT22;2239;48.152;11.584;2022-08-19T03:16:18;19.10;99.90
4453;DHT22;2239;48.152;11.584;2022-08-19T03:18:44;19.10;99.90
4453;DHT22;2239;48.152;11.584;2022-08-19T03:21:15;19.10;99.90
4453;DHT22;2239;48.152;11.584;2022-08-19T03:23:41;19.10;99.90
4453;DHT22;2239;48.152;11.584;2022-08-19T03:26:07;19.10;99.90
4453;DHT22;2239;48.152;11.584;2022-08-19T03:28:33;19.10;99.90
4453;DHT22;2239;48.152;11.584;2022-08-19T03:31:19;19.10;99.90
4453;DHT22;2239;48.152;11.584;2022-08-19T03:33:48;19.10;99.90
4453;DHT22;2239;48.152;11.584;2022-08-19T03:36:18;19.10;99.90
4453;DHT22;2239;48.152;11.584;2022-08-19T03:38:49;19.20;99.90
4453;DHT22;2239;48.152;11.584;2022-08-19T03:41:18;19.20;99.90
4453;DHT22;2239;48.152;11.584;2022-08-19T03:43:45;19.20;99.90
4453;DHT22;2239;48.152;11.584;2022-08-19T03:46:16;19.20;99.90
4453;DHT22;2239;48.152;11.584;2022-08-19T03:48:43;19.20;99.90
4453;DHT22;2239;48.152;11.584;2022-08-19T03:51:23;19.20;99.90
4453;DHT22;2239;48.152;11.584;2022-08-19T03:53:51;19.20;99.90
4453;DHT22;2239;48.152;11.584;2022-08-19T03:56:18;19.20;99.90
4453;DHT22;2239;48.152;11.584;2022-08-19T03:58:45;19.20;99.90
4453;DHT22;2239;48.152;11.584;2022-08-19T04:01:14;19.20;99.90
4453;DHT22;2239;48.152;11.584;2022-08-19T04:03:40;19.20;99.90
4453;DHT22;2239;48.152;11.584;2022-08-19T04:06:14;19.20;99.90
4453;DHT22;2239;48.152;11.584;2022-08-19T04:08:41;19.20;99.90
4453;DHT22;2239;48.152;11.584;2022-08-19T04:11:12;19.20;99.90
4453;DHT22;2239;48.152;11.584;2022-08-19T04:13:38;19.20;99.90
4453;DHT22;2239;48.152;11.584;2022-08-19T04:16:05;19.20;99.90
4453;DHT22;2239;48.152;11.584;2022-08-19T04:18:33;19.20;99.90
4453;DHT22;2239;48.152;11.584;2022-08-19T04:20:59;19.20;99.90
4453;DHT22;2239;48.152;11.584;2022-08-19T04:23:25;19.20;99.90
4453;DHT22;2239;48.152;11.584;2022-08-19T04:25:51;19.20;99.90
4453;DHT22;2239;48.152;11.584;2022-08-19T04:28:16;19.20;99.90
4453;DHT22;2239;48.152;11.584;2022-08-19T04:30:50;19.20;99.90
4453;DHT22;2239;48.152;11.584;2022-08-19T04:33:20;19.10;99.90
4453;DHT22;2239;48.152;11.584;2022-08-19T04:35:48;19.10;99.90
4453;DHT22;2239;48.152;11.584;2022-08-19T04:38:16;19.10;99.90
4453;DHT22;2239;48.152;11.584;2022-08-19T04:40:51;19.10;99.90
4453;DHT22;2239;48.152;11.584;2022-08-19T04:43:37;19.10;99.90
4453;DHT22;2239;48.152;11.584;2022-08-19T04:46:08;19.10;99.90
4453;DHT22;2239;48.152;11.584;2022-08-19T04:48:36;19.20;99.90
4453;DHT22;2239;48.152;11.584;2022-08-19T04:51:07;19.20;99.90
4453;DHT22;2239;48.152;11.584;2022-08-19T04:53:35;19.20;99.90
4453;DHT22;2239;48.152;11.584;2022-08-19T04:56:09;19.20;99.90
4453;DHT22;2239;48.152;11.584;2022-08-19T04:58:36;19.20;99.90
4453;DHT22;2239;48.152;11.584;2022-08-19T05:01:04;19.20;99.90
4453;DHT22;2239;48.152;11.584;2022-08-19T05:03:30;19.20;99.90
4453;DHT22;2239;48.152;11.584;2022-08-19T05:06:05;19.20;99.90
4453;DHT22;2239;48.152;11.584;2022-08-19T05:08:34;19.20;99.90
4453;DHT22;2239;48.152;11.584;2022-08-19T05:11:06;19.20;99.90
4453;DHT22;2239;48.152;11.584;2022-08-19T05:13:32;19.10;99.90
4453;DHT22;2239;48.152;11.584;2022-08-19T05:15:59;19.00;99.90
4453;DHT22;2239;48.152;11.584;2022-08-19T05:18:26;19.00;99.90
4453;DHT22;2239;48.152;11.584;2022-08-19T05:21:14;19.00;99.90
4453;DHT22;2239;48.152;11.584;2022-08-19T05:24:00;19.00;99.90
4453;DHT22;2239;48.152;11.584;2022-08-19T05:26:26;19.00;99.90
4453;DHT22;2239;48.152;11.584;2022-08-19T05:28:53;19.10;99.90
4453;DHT22;2239;48.152;11.584;2022-08-19T05:31:18;19.10;99.90
4453;DHT22;2239;48.152;11.584;2022-08-19T05:33:45;19.10;99.90
4453;DHT22;2239;48.152;11.584;2022-08-19T05:36:10;19.10;99.90
4453;DHT22;2239;48.152;11.584;2022-08-19T05:38:36;19.10;99.90
4453;DHT22;2239;48.152;11.584;2022-08-19T05:41:12;19.20;99.90
4453;DHT22;2239;48.152;11.584;2022-08-19T05:43:38;19.20;99.90
4453;DHT22;2239;48.152;11.584;2022-08-19T05:46:05;19.20;99.90
4453;DHT22;2239;48.152;11.584;2022-08-19T05:48:35;19.10;99.90
4453;DHT22;2239;48.152;11.584;2022-08-19T05:51:07;19.20;99.90
4453;DHT22;2239;48.152;11.584;2022-08-19T05:53:34;19.20;99.90
4453;DHT22;2239;48.152;11.584;2022-08-19T05:56:07;19.30;99.90
4453;DHT22;2239;48.152;11.584;2022-08-19T05:58:34;19.30;99.90
4453;DHT22;2239;48.152;11.584;2022-08-19T06:01:00;19.30;99.90
4453;DHT22;2239;48.152;11.584;2022-08-19T06:03:30;19.30;99.90
4453;DHT22;2239;48.152;11.584;2022-08-19T06:05:57;19.40;99.90
4453;DHT22;2239;48.152;11.584;2022-08-19T06:08:25;19.40;99.90
4453;DHT22;2239;48.152;11.584;2022-08-19T06:10:50;19.30;99.90
4453;DHT22;2239;48.152;11.584;2022-08-19T06:13:16;19.30;99.90
4453;DHT22;2239;48.152;11.584;2022-08-19T06:15:42;19.30;99.90
4453;DHT22;2239;48.152;11.584;2022-08-19T06:18:09;19.30;99.90
4453;DHT22;2239;48.152;11.584;2022-08-19T06:20:35;19.40;99.90
4453;DHT22;2239;48.152;11.584;2022-08-19T06:23:00;19.40;99.90
4453;DHT22;2239;48.152;11.584;2022-08-19T06:25:26;19.40;99.90
4453;DHT22;2239;48.152;11.584;2022-08-19T06:27:52;19.40;99.90
4453;DHT22;2239;48.152;11.584;2022-08-19T06:30:18;19.40;99.90
4453;DHT22;2239;48.152;11.584;2022-08-19T06:32:44;19.30;99.90
4453;DHT22;2239;48.152;11.584;2022-08-19T06:35:10;19.30;99.90
4453;DHT22;2239;48.152;11.584;2022-08-19T06:37:36;19.40;99.90
4453;DHT22;2239;48.152;11.584;2022-08-19T06:40:02;19.40;99.90
4453;DHT22;2239;48.152;11.584;2022-08-19T06:42:28;19.40;99.90
4453;DHT22;2239;48.152;11.584;2022-08-19T06:44:54;19.40;99.90
4453;DHT22;2239;48.152;11.584;2022-08-19T06:47:21;19.50;99.90
4453;DHT22;2239;48.152;11.584;2022-08-19T06:49:47;19.50;99.90
4453;DHT22;2239;48.152;11.584;2022-08-19T06:52:13;19.50;99.90
4453;DHT22;2239;48.152;11.584;2022-08-19T06:54:40;19.60;99.90
4453;DHT22;2239;48.152;11.584;2022-08-19T06:57:06;19.60;99.90
4453;DHT22;2239;48.152;11.584;2022-08-19T06:59:33;19.60;99.90
4453;DHT22;2239;48.152;11.584;2022-08-19T07:02:02;19.60;99.90
4453;DHT22;2239;48.152;11.584;2022-08-19T07:04:31;19.60;99.90
4453;DHT22;2239;48.152;11.584;2022-08-19T07:07:15;19.50;99.90
4453;DHT22;2239;48.152;11.584;2022-08-19T07:09:43;19.60;99.90
4453;DHT22;2239;48.152;11.584;2022-08-19T07:12:11;19.60;99.90
4453;DHT22;2239;48.152;11.584;2022-08-19T07:14:37;19.70;99.90
4453;DHT22;2239;48.152;11.584;2022-08-19T07:17:09;19.80;99.90
4453;DHT22;2239;48.152;11.584;2022-08-19T07:19:36;19.80;99.90
4453;DHT22;2239;48.152;11.584;2022-08-19T07:22:04;19.90;99.90
4453;DHT22;2239;48.152;11.584;2022-08-19T07:24:31;20.10;99.90
4453;DHT22;2239;48.152;11.584;2022-08-19T07:26:59;20.20;99.90
4453;DHT22;2239;48.152;11.584;2022-08-19T07:29:27;20.30;99.90
4453;DHT22;2239;48.152;11.584;2022-08-19T07:31:54;20.30;99.90
4453;DHT22;2239;48.152;11.584;2022-08-19T07:34:25;20.30;99.90
4453;DHT22;2239;48.152;11.584;2022-08-19T07:36:51;20.40;99.90
4453;DHT22;2239;48.152;11.584;2022-08-19T07:39:20;20.50;99.90
4453;DHT22;2239;48.152;11.584;2022-08-19T07:41:47;20.50;99.90
4453;DHT22;2239;48.152;11.584;2022-08-19T07:44:13;20.60;99.90
4453;DHT22;2239;48.152;11.584;2022-08-19T07:46:43;20.60;99.90
4453;DHT22;2239;48.152;11.584;2022-08-19T07:49:10;20.70;99.90
4453;DHT22;2239;48.152;11.584;2022-08-19T07:51:43;20.60;99.90
4453;DHT22;2239;48.152;11.584;2022-08-19T07:54:10;20.60;99.90
4453;DHT22;2239;48.152;11.584;2022-08-19T07:56:37;20.60;99.90
4453;DHT22;2239;48.152;11.584;2022-08-19T07:59:03;20.60;99.90
4453;DHT22;2239;48.152;11.584;2022-08-19T08:01:28;20.70;99.90
4453;DHT22;2239;48.152;11.584;2022-08-19T08:03:56;20.70;99.90
4453;DHT22;2239;48.152;11.584;2022-08-19T08:06:41;20.60;99.90
4453;DHT22;2239;48.152;11.584;2022-08-19T08:09:29;20.60;99.90
4453;DHT22;2239;48.152;11.584;2022-08-19T08:11:59;20.60;99.90
4453;DHT22;2239;48.152;11.584;2022-08-19T08:14:35;20.50;99.90
4453;DHT22;2239;48.152;11.584;2022-08-19T08:17:04;20.40;99.90
4453;DHT22;2239;48.152;11.584;2022-08-19T08:19:30;20.40;99.90
4453;DHT22;2239;48.152;11.584;2022-08-19T08:21:57;20.30;99.90
4453;DHT22;2239;48.152;11.584;2022-08-19T08:24:25;20.20;99.90
4453;DHT22;2239;48.152;11.584;2022-08-19T08:26:51;20.20;99.90
4453;DHT22;2239;48.152;11.584;2022-08-19T08:29:17;20.20;99.90
4453;DHT22;2239;48.152;11.584;2022-08-19T08:31:45;20.20;99.90
4453;DHT22;2239;48.152;11.584;2022-08-19T08:34:12;20.10;99.90
4453;DHT22;2239;48.152;11.584;2022-08-19T08:36:42;20.10;99.90
4453;DHT22;2239;48.152;11.584;2022-08-19T08:39:09;20.20;99.90
4453;DHT22;2239;48.152;11.584;2022-08-19T08:44:06;20.10;99.90
4453;DHT22;2239;48.152;11.584;2022-08-19T08:46:38;20.10;99.90
4453;DHT22;2239;48.152;11.584;2022-08-19T08:49:20;20.10;99.90
4453;DHT22;2239;48.152;11.584;2022-08-19T08:52:45;20.10;99.90
4453;DHT22;2239;48.152;11.584;2022-08-19T08:54:54;20.10;99.90
4453;DHT22;2239;48.152;11.584;2022-08-19T08:57:42;20.10;99.90
4453;DHT22;2239;48.152;11.584;2022-08-19T09:00:16;20.10;99.90
4453;DHT22;2239;48.152;11.584;2022-08-19T09:02:43;20.10;99.90
4453;DHT22;2239;48.152;11.584;2022-08-19T09:05:10;20.10;99.90
4453;DHT22;2239;48.152;11.584;2022-08-19T09:15:25;19.80;99.90
4453;DHT22;2239;48.152;11.584;2022-08-19T09:17:54;19.80;99.90
4453;DHT22;2239;48.152;11.584;2022-08-19T09:20:22;19.80;99.90
4453;DHT22;2239;48.152;11.584;2022-08-19T09:22:48;19.70;99.90
4453;DHT22;2239;48.152;11.584;2022-08-19T09:25:20;19.60;99.90
4453;DHT22;2239;48.152;11.584;2022-08-19T09:27:48;19.60;99.90
4453;DHT22;2239;48.152;11.584;2022-08-19T09:30:17;19.60;99.90
4453;DHT22;2239;48.152;11.584;2022-08-19T09:32:44;19.60;99.90
4453;DHT22;2239;48.152;11.584;2022-08-19T09:35:11;19.60;99.90
4453;DHT22;2239;48.152;11.584;2022-08-19T09:37:38;19.60;99.90
4453;DHT22;2239;48.152;11.584;2022-08-19T09:40:04;19.60;99.90
4453;DHT22;2239;48.152;11.584;2022-08-19T09:42:30;19.60;99.90
4453;DHT22;2239;48.152;11.584;2022-08-19T09:44:55;19.60;99.90
4453;DHT22;2239;48.152;11.584;2022-08-19T09:47:21;19.70;99.90
4453;DHT22;2239;48.152;11.584;2022-08-19T09:49:47;19.80;99.90
4453;DHT22;2239;48.152;11.584;2022-08-19T09:52:14;19.90;99.90
4453;DHT22;2239;48.152;11.584;2022-08-19T09:54:42;20.00;99.90
4453;DHT22;2239;48.152;11.584;2022-08-19T09:57:07;20.10;99.90
4453;DHT22;2239;48.152;11.584;2022-08-19T09:59:33;20.10;99.90
4453;DHT22;2239;48.152;11.584;2022-08-19T10:01:59;20.20;99.90
4453;DHT22;2239;48.152;11.584;2022-08-19T10:04:25;20.20;99.90
4453;DHT22;2239;48.152;11.584;2022-08-19T10:07:10;20.20;99.90
4453;DHT22;2239;48.152;11.584;2022-08-19T10:09:36;20.30;99.90
4453;DHT22;2239;48.152;11.584;2022-08-19T10:12:03;20.40;99.90
4453;DHT22;2239;48.152;11.584;2022-08-19T10:14:30;20.40;99.90
4453;DHT22;2239;48.152;11.584;2022-08-19T10:16:56;20.40;99.90
4453;DHT22;2239;48.152;11.584;2022-08-19T10:19:22;20.50;99.90
4453;DHT22;2239;48.152;11.584;2022-08-19T10:21:48;20.70;99.90
4453;DHT22;2239;48.152;11.584;2022-08-19T10:24:13;21.00;99.90
4453;DHT22;2239;48.152;11.584;2022-08-19T10:26:40;21.30;99.90
4453;DHT22;2239;48.152;11.584;2022-08-19T10:29:10;21.60;99.90
4453;DHT22;2239;48.152;11.584;2022-08-19T10:31:37;21.70;99.90
4453;DHT22;2239;48.152;11.584;2022-08-19T10:34:03;22.00;99.90
4453;DHT22;2239;48.152;11.584;2022-08-19T10:36:32;22.30;99.90
4453;DHT22;2239;48.152;11.584;2022-08-19T10:39:01;22.50;99.90
4453;DHT22;2239;48.152;11.584;2022-08-19T10:41:30;22.60;99.90
4453;DHT22;2239;48.152;11.584;2022-08-19T10:44:01;23.00;99.90
4453;DHT22;2239;48.152;11.584;2022-08-19T10:46:28;23.40;99.90
4453;DHT22;2239;48.152;11.584;2022-08-19T10:48:56;23.70;99.90
4453;DHT22;2239;48.152;11.584;2022-08-19T10:51:22;23.70;99.90
4453;DHT22;2239;48.152;11.584;2022-08-19T10:54:07;23.70;99.90
4453;DHT22;2239;48.152;11.584;2022-08-19T10:56:34;23.60;99.90
4453;DHT22;2239;48.152;11.584;2022-08-19T10:59:25;23.40;99.90
4453;DHT22;2239;48.152;11.584;2022-08-19T11:01:53;23.30;99.90
4453;DHT22;2239;48.152;11.584;2022-08-19T11:04:20;23.30;99.90
4453;DHT22;2239;48.152;11.584;2022-08-19T11:06:47;23.30;99.90
4453;DHT22;2239;48.152;11.584;2022-08-19T11:09:18;23.40;99.90
4453;DHT22;2239;48.152;11.584;2022-08-19T11:11:44;23.40;99.90
4453;DHT22;2239;48.152;11.584;2022-08-19T11:14:13;23.20;99.90
4453;DHT22;2239;48.152;11.584;2022-08-19T11:16:40;23.00;99.90
4453;DHT22;2239;48.152;11.584;2022-08-19T11:19:08;22.80;99.90
4453;DHT22;2239;48.152;11.584;2022-08-19T11:21:40;22.70;99.90
4453;DHT22;2239;48.152;11.584;2022-08-19T11:24:10;22.70;99.90
4453;DHT22;2239;48.152;11.584;2022-08-19T11:26:38;22.60;99.90
4453;DHT22;2239;48.152;11.584;2022-08-19T11:29:05;22.60;99.90
4453;DHT22;2239;48.152;11.584;2022-08-19T11:31:34;22.80;99.90
4453;DHT22;2239;48.152;11.584;2022-08-19T11:34:03;22.90;99.90
4453;DHT22;2239;48.152;11.584;2022-08-19T11:36:30;22.90;99.90
4453;DHT22;2239;48.152;11.584;2022-08-19T11:38:57;23.00;99.90
4453;DHT22;2239;48.152;11.584;2022-08-19T11:41:24;23.10;99.90
4453;DHT22;2239;48.152;11.584;2022-08-19T11:43:51;23.20;99.90
4453;DHT22;2239;48.152;11.584;2022-08-19T11:46:22;23.20;99.90
4453;DHT22;2239;48.152;11.584;2022-08-19T11:48:48;23.20;99.90
4453;DHT22;2239;48.152;11.584;2022-08-19T11:51:17;23.30;99.90
4453;DHT22;2239;48.152;11.584;2022-08-19T11:53:44;23.10;99.90
4453;DHT22;2239;48.152;11.584;2022-08-19T11:56:11;23.10;99.90
4453;DHT22;2239;48.152;11.584;2022-08-19T11:58:37;23.10;99.90
4453;DHT22;2239;48.152;11.584;2022-08-19T12:01:08;23.10;99.90
4453;DHT22;2239;48.152;11.584;2022-08-19T12:03:34;23.10;99.90
4453;DHT22;2239;48.152;11.584;2022-08-19T12:06:05;23.10;99.90
4453;DHT22;2239;48.152;11.584;2022-08-19T12:08:30;23.00;99.90
4453;DHT22;2239;48.152;11.584;2022-08-19T12:10:56;22.80;99.90
4453;DHT22;2239;48.152;11.584;2022-08-19T12:13:22;22.80;99.90
4453;DHT22;2239;48.152;11.584;2022-08-19T12:15:48;22.80;99.90
4453;DHT22;2239;48.152;11.584;2022-08-19T12:18:13;22.90;99.90
4453;DHT22;2239;48.152;11.584;2022-08-19T12:20:40;23.00;99.90
4453;DHT22;2239;48.152;11.584;2022-08-19T12:23:07;23.00;99.90
4453;DHT22;2239;48.152;11.584;2022-08-19T12:25:35;23.00;99.90
4453;DHT22;2239;48.152;11.584;2022-08-19T12:28:02;22.90;99.90
4453;DHT22;2239;48.152;11.584;2022-08-19T12:30:27;23.00;99.90
4453;DHT22;2239;48.152;11.584;2022-08-19T12:32:53;23.00;99.90
4453;DHT22;2239;48.152;11.584;2022-08-19T12:35:19;22.90;99.90
4453;DHT22;2239;48.152;11.584;2022-08-19T12:37:48;23.00;99.90
4453;DHT22;2239;48.152;11.584;2022-08-19T12:40:15;22.90;99.90
4453;DHT22;2239;48.152;11.584;2022-08-19T12:42:43;22.90;99.90
4453;DHT22;2239;48.152;11.584;2022-08-19T12:45:13;23.10;99.90
4453;DHT22;2239;48.152;11.584;2022-08-19T12:47:39;23.20;99.90
4453;DHT22;2239;48.152;11.584;2022-08-19T12:50:06;23.50;99.90
4453;DHT22;2239;48.152;11.584;2022-08-19T12:52:35;23.50;99.90
4453;DHT22;2239;48.152;11.584;2022-08-19T12:55:07;23.60;99.90
4453;DHT22;2239;48.152;11.584;2022-08-19T12:57:33;23.90;99.90
4453;DHT22;2239;48.152;11.584;2022-08-19T13:00:06;24.30;99.90
4453;DHT22;2239;48.152;11.584;2022-08-19T13:02:36;24.60;99.90
4453;DHT22;2239;48.152;11.584;2022-08-19T13:05:02;24.90;99.90
4453;DHT22;2239;48.152;11.584;2022-08-19T13:07:27;24.90;99.90
4453;DHT22;2239;48.152;11.584;2022-08-19T13:09:53;24.80;99.90
4453;DHT22;2239;48.152;11.584;2022-08-19T13:12:19;24.80;99.90
4453;DHT22;2239;48.152;11.584;2022-08-19T13:14:45;24.90;99.90
4453;DHT22;2239;48.152;11.584;2022-08-19T13:17:15;24.90;99.90
4453;DHT22;2239;48.152;11.584;2022-08-19T13:19:41;24.80;99.90
4453;DHT22;2239;48.152;11.584;2022-08-19T13:22:07;25.20;99.90
4453;DHT22;2239;48.152;11.584;2022-08-19T13:24:32;25.50;99.90
4453;DHT22;2239;48.152;11.584;2022-08-19T13:27:00;25.70;99.90
4453;DHT22;2239;48.152;11.584;2022-08-19T13:29:25;25.80;99.90
4453;DHT22;2239;48.152;11.584;2022-08-19T13:32:10;26.00;99.90
4453;DHT22;2239;48.152;11.584;2022-08-19T13:34:54;26.30;99.90
4453;DHT22;2239;48.152;11.584;2022-08-19T13:37:21;26.20;99.90
4453;DHT22;2239;48.152;11.584;2022-08-19T13:40:08;26.00;99.90
4453;DHT22;2239;48.152;11.584;2022-08-19T13:42:41;25.80;99.90
4453;DHT22;2239;48.152;11.584;2022-08-19T13:45:07;25.70;99.90
4453;DHT22;2239;48.152;11.584;2022-08-19T13:47:34;25.70;99.90
4453;DHT22;2239;48.152;11.584;2022-08-19T13:50:02;25.60;99.90
4453;DHT22;2239;48.152;11.584;2022-08-19T13:52:28;25.40;99.90
4453;DHT22;2239;48.152;11.584;2022-08-19T13:54:54;25.10;99.90
4453;DHT22;2239;48.152;11.584;2022-08-19T13:57:20;24.80;99.90
4453;DHT22;2239;48.152;11.584;2022-08-19T13:59:45;24.50;99.90
4453;DHT22;2239;48.152;11.584;2022-08-19T14:02:11;24.40;99.90
4453;DHT22;2239;48.152;11.584;2022-08-19T14:04:37;24.30;99.90
4453;DHT22;2239;48.152;11.584;2022-08-19T14:07:03;24.30;99.90
4453;DHT22;2239;48.152;11.584;2022-08-19T14:09:29;24.30;99.90
4453;DHT22;2239;48.152;11.584;2022-08-19T14:11:55;24.30;99.90
4453;DHT22;2239;48.152;11.584;2022-08-19T14:14:21;24.30;99.90
4453;DHT22;2239;48.152;11.584;2022-08-19T14:16:47;24.30;99.90
4453;DHT22;2239;48.152;11.584;2022-08-19T14:19:13;24.40;99.90
4453;DHT22;2239;48.152;11.584;2022-08-19T14:21:39;24.40;99.90
4453;DHT22;2239;48.152;11.584;2022-08-19T14:24:06;24.60;99.90
4453;DHT22;2239;48.152;11.584;2022-08-19T14:26:32;24.90;99.90
4453;DHT22;2239;48.152;11.584;2022-08-19T14:28:58;25.10;99.90
4453;DHT22;2239;48.152;11.584;2022-08-19T14:31:25;25.20;99.90
4453;DHT22;2239;48.152;11.584;2022-08-19T14:33:51;24.90;99.90
4453;DHT22;2239;48.152;11.584;2022-08-19T14:36:18;24.80;99.90
4453;DHT22;2239;48.152;11.584;2022-08-19T14:38:44;24.50;99.90
4453;DHT22;2239;48.152;11.584;2022-08-19T14:41:17;24.30;99.90
4453;DHT22;2239;48.152;11.584;2022-08-19T14:43:50;24.10;99.90
4453;DHT22;2239;48.152;11.584;2022-08-19T14:46:18;24.00;99.90
4453;DHT22;2239;48.152;11.584;2022-08-19T14:48:48;24.00;99.90
4453;DHT22;2239;48.152;11.584;2022-08-19T14:51:15;24.00;99.90
4453;DHT22;2239;48.152;11.584;2022-08-19T14:53:41;23.80;99.90
4453;DHT22;2239;48.152;11.584;2022-08-19T14:56:09;23.70;99.90
4453;DHT22;2239;48.152;11.584;2022-08-19T14:58:35;23.60;99.90
4453;DHT22;2239;48.152;11.584;2022-08-19T15:01:00;23.40;99.90
4453;DHT22;2239;48.152;11.584;2022-08-19T15:03:27;23.40;99.90
4453;DHT22;2239;48.152;11.584;2022-08-19T15:05:53;23.50;99.90
4453;DHT22;2239;48.152;11.584;2022-08-19T15:08:19;23.50;99.90
4453;DHT22;2239;48.152;11.584;2022-08-19T15:10:48;23.60;99.90
4453;DHT22;2239;48.152;11.584;2022-08-19T15:13:14;23.60;99.90
4453;DHT22;2239;48.152;11.584;2022-08-19T15:15:40;23.60;99.90
4453;DHT22;2239;48.152;11.584;2022-08-19T15:18:05;23.70;99.90
4453;DHT22;2239;48.152;11.584;2022-08-19T15:20:31;23.60;99.90
4453;DHT22;2239;48.152;11.584;2022-08-19T15:22:57;23.60;99.90
4453;DHT22;2239;48.152;11.584;2022-08-19T15:25:24;23.60;99.90
4453;DHT22;2239;48.152;11.584;2022-08-19T15:27:50;23.60;99.90
4453;DHT22;2239;48.152;11.584;2022-08-19T15:30:24;23.40;99.90
4453;DHT22;2239;48.152;11.584;2022-08-19T15:32:50;23.20;99.90
4453;DHT22;2239;48.152;11.584;2022-08-19T15:35:18;23.00;99.90
4453;DHT22;2239;48.152;11.584;2022-08-19T15:37:47;22.70;99.90
4453;DHT22;2239;48.152;11.584;2022-08-19T15:40:13;22.40;99.90
4453;DHT22;2239;48.152;11.584;2022-08-19T15:42:39;22.20;99.90
4453;DHT22;2239;48.152;11.584;2022-08-19T15:45:07;21.90;99.90
4453;DHT22;2239;48.152;11.584;2022-08-19T15:47:34;21.80;99.90
4453;DHT22;2239;48.152;11.584;2022-08-19T15:50:09;21.70;99.90
4453;DHT22;2239;48.152;11.584;2022-08-19T15:52:35;21.70;99.90
4453;DHT22;2239;48.152;11.584;2022-08-19T15:55:01;21.70;99.90
4453;DHT22;2239;48.152;11.584;2022-08-19T15:57:27;21.70;99.90
4453;DHT22;2239;48.152;11.584;2022-08-19T15:59:53;21.80;99.90
4453;DHT22;2239;48.152;11.584;2022-08-19T16:02:37;21.70;99.90